Terminal Aerodrome Forecast
Issued by NWS

Home | Current Version | Previous Version | Text Only | Print | Product List | Glossary On
Versions: 1 2 3 4 5 6 7 8 9 10 11 12
000
FTUS41 KLWX 201700 RRA
TAFMTN
TAF
KMTN 201744Z 2018/2118 16010G15KT P6SM BKN200
     FM210000 19008KT P6SM BKN110
     FM210300 VRB03KT P6SM BKN060
     FM211300 24005KT P6SM BKN060=

USA.gov is the U.S. government's official web portal to all federal, state and local government web resources and services.